Pagina principale
METAR-TAF:

METAR-TAF

Aeroporti :

Batman, Turchia

latitudine: 37-52N, longitudine: 041-10E, altezza: 540 m

Osservazione

Il bollettino è stato emesso 40 minuti fa, alle 13:20 UTC
Vento 2 kt da direzioni variabili
Temperature 27°C
Umidità 42%
Pressione 1016 hPa
Visibilità 10 km o più
Nubi sparse ad un'altezza di 20000 ft

METAR: LTCJ 261320Z VRB02KT 9999 SCT200 27/13 Q1016 RMK RWY20 VRB04KT

Ora: 17:00 (14:00 UTC)

Previsione

Il bollettino è stato emesso 3 ore e 20 minuti fa, alle 10:40 UTC
Previsione valida dal 26 alle 12 UTC al 27 alle 12 UTC
Vento 2 kt da direzioni variabili
Visibilità 10 km o più
nessuna nube inferiore a 1500 m e nessun cumulonembo
Evoluzione graduale
dal 26 alle 12 UTC al 26 alle 14 UTC
Poco nuvoloso ad un'altezza di 10000 ft
Nubi sparse ad un'altezza di 18000 ft

TAF: LTCJ 261040Z 2612/2712 VRB02KT CAVOK BECMG 2612/2614 FEW100 SCT180

Osservazioni e previsioni meteorologiche di più di 4000 aeroporti (messaggi METAR e TAF).

Le stazioni disponibili sono rappresentate dai dischi gialli e rossi sulla carta.

Puntare il mouse per vedere il nome della stazione.

Clicca sopra per visualizzare le osservazioni e previsioni meteorologiche.

Per cambiare la mappa : fare clic sui pulsanti verdi con una croce nera per ingrandire, il pulsante verde con un trattino per diminuire, o sulla freccia verde per le mappe adiacenti.


METAR-TAF: